Rechercher aéroport 
image banner adimage banner adimage banner ad
image banner ad

PN54 - Akm Airfield

Situé à Columia Cross Roads, United States

ICAO - PN54, IATA -

Données fournies par Airmate  

Information générale

Coordonnées: N41°50'30" W76°44'45"
Élévation : 1393 feet MSL.
Variation magnétique : -12° East
Voir autres Aéroports à Pennsylvania

Données opérationnelles

Special qualification required
Heure actuelle UTC:
Heure actuelle locale:
Météo à : KELM - Elmira/Corning Rgnl ( 37 km )
METAR: KELM 150653Z AUTO 22007KT 10SM CLR 13/12 A2981 RMK AO2 SLP094 T01280117
TAF: KELM 150532Z 1506/1606 29009KT P6SM FEW040 FM150900 30003KT 6SM BR BKN015 TEMPO 1510/1513 BKN007 FM151600 31008G15KT P6SM -SHRA BKN027 FM152200 34010KT P6SM SCT040
Voir NOTAMs / SUP AIP / TFR affectant cet aéroport [VIEW]
Fréquences de communication: [VIEW]

Pistes:

Identifiant RWYQFULongueur (ft)Largeur (ft)SurfaceLDA (ft)
182100100GRASS
362100100GRASS

Coordonnées de l'aéroport

Adresse: Columia Cross Roads United States

Vue satellite de PN54